sensor_id;sensor_type;location;lat;lon;timestamp;P1;durP1;ratioP1;P2;durP2;ratioP2
20069;SDS011;10195;50.868;4.382;2022-10-16T00:01:19;4.50;;;1.07;;
20069;SDS011;10195;50.868;4.382;2022-10-16T00:03:47;3.40;;;1.20;;
20069;SDS011;10195;50.868;4.382;2022-10-16T00:06:14;2.90;;;1.10;;
20069;SDS011;10195;50.868;4.382;2022-10-16T00:08:41;4.23;;;0.97;;
20069;SDS011;10195;50.868;4.382;2022-10-16T00:11:11;2.23;;;1.03;;
20069;SDS011;10195;50.868;4.382;2022-10-16T00:13:39;1.80;;;1.17;;
20069;SDS011;10195;50.868;4.382;2022-10-16T00:16:07;2.07;;;1.07;;
20069;SDS011;10195;50.868;4.382;2022-10-16T00:18:33;1.30;;;1.07;;
20069;SDS011;10195;50.868;4.382;2022-10-16T00:21:03;3.00;;;0.90;;
20069;SDS011;10195;50.868;4.382;2022-10-16T00:23:34;4.17;;;1.30;;
20069;SDS011;10195;50.868;4.382;2022-10-16T00:26:04;3.93;;;1.10;;
20069;SDS011;10195;50.868;4.382;2022-10-16T00:28:31;2.37;;;1.27;;
20069;SDS011;10195;50.868;4.382;2022-10-16T00:30:57;5.33;;;1.30;;
20069;SDS011;10195;50.868;4.382;2022-10-16T00:33:23;1.97;;;1.20;;
20069;SDS011;10195;50.868;4.382;2022-10-16T00:35:50;1.93;;;1.10;;
20069;SDS011;10195;50.868;4.382;2022-10-16T00:38:16;1.87;;;1.20;;
20069;SDS011;10195;50.868;4.382;2022-10-16T00:40:41;1.33;;;1.00;;
20069;SDS011;10195;50.868;4.382;2022-10-16T00:43:31;1.60;;;1.23;;
20069;SDS011;10195;50.868;4.382;2022-10-16T00:48:48;1.37;;;1.10;;
20069;SDS011;10195;50.868;4.382;2022-10-16T00:51:21;2.17;;;1.10;;
20069;SDS011;10195;50.868;4.382;2022-10-16T00:53:55;2.07;;;1.20;;
20069;SDS011;10195;50.868;4.382;2022-10-16T00:56:22;3.80;;;1.00;;
20069;SDS011;10195;50.868;4.382;2022-10-16T00:58:48;2.47;;;1.33;;
20069;SDS011;10195;50.868;4.382;2022-10-16T01:01:14;4.63;;;1.30;;
20069;SDS011;10195;50.868;4.382;2022-10-16T01:03:39;4.70;;;1.30;;
20069;SDS011;10195;50.868;4.382;2022-10-16T01:09:13;2.50;;;1.30;;
20069;SDS011;10195;50.868;4.382;2022-10-16T01:11:50;1.37;;;1.10;;
20069;SDS011;10195;50.868;4.382;2022-10-16T01:17:32;1.73;;;1.30;;
20069;SDS011;10195;50.868;4.382;2022-10-16T01:20:10;2.27;;;1.20;;
20069;SDS011;10195;50.868;4.382;2022-10-16T01:25:52;3.20;;;1.40;;
20069;SDS011;10195;50.868;4.382;2022-10-16T01:28:40;2.77;;;1.27;;
20069;SDS011;10195;50.868;4.382;2022-10-16T01:31:06;2.37;;;1.47;;
20069;SDS011;10195;50.868;4.382;2022-10-16T01:33:35;4.10;;;1.50;;
20069;SDS011;10195;50.868;4.382;2022-10-16T01:36:09;4.00;;;1.50;;
20069;SDS011;10195;50.868;4.382;2022-10-16T01:38:39;3.10;;;1.67;;
20069;SDS011;10195;50.868;4.382;2022-10-16T01:41:19;4.70;;;1.53;;
20069;SDS011;10195;50.868;4.382;2022-10-16T01:44:02;3.03;;;1.50;;
20069;SDS011;10195;50.868;4.382;2022-10-16T01:46:32;4.67;;;1.30;;
20069;SDS011;10195;50.868;4.382;2022-10-16T01:49:01;4.07;;;1.40;;
20069;SDS011;10195;50.868;4.382;2022-10-16T01:51:28;1.63;;;1.37;;
20069;SDS011;10195;50.868;4.382;2022-10-16T01:53:55;4.53;;;1.60;;
20069;SDS011;10195;50.868;4.382;2022-10-16T01:56:24;2.70;;;1.20;;
20069;SDS011;10195;50.868;4.382;2022-10-16T01:58:53;3.27;;;1.40;;
20069;SDS011;10195;50.868;4.382;2022-10-16T02:01:26;8.90;;;1.93;;
20069;SDS011;10195;50.868;4.382;2022-10-16T02:03:54;2.53;;;1.40;;
20069;SDS011;10195;50.868;4.382;2022-10-16T02:06:23;4.00;;;1.40;;
20069;SDS011;10195;50.868;4.382;2022-10-16T02:08:50;3.00;;;1.30;;
20069;SDS011;10195;50.868;4.382;2022-10-16T02:11:16;6.43;;;1.40;;
20069;SDS011;10195;50.868;4.382;2022-10-16T02:13:43;2.87;;;1.50;;
20069;SDS011;10195;50.868;4.382;2022-10-16T02:16:13;5.03;;;1.60;;
20069;SDS011;10195;50.868;4.382;2022-10-16T02:18:39;4.63;;;1.53;;
20069;SDS011;10195;50.868;4.382;2022-10-16T02:21:18;4.03;;;1.47;;
20069;SDS011;10195;50.868;4.382;2022-10-16T02:26:54;2.77;;;1.50;;
20069;SDS011;10195;50.868;4.382;2022-10-16T02:29:28;5.07;;;1.50;;
20069;SDS011;10195;50.868;4.382;2022-10-16T02:31:55;2.87;;;1.40;;
20069;SDS011;10195;50.868;4.382;2022-10-16T02:34:25;6.40;;;1.73;;
20069;SDS011;10195;50.868;4.382;2022-10-16T02:36:54;2.97;;;1.30;;
20069;SDS011;10195;50.868;4.382;2022-10-16T02:39:22;4.67;;;1.60;;
20069;SDS011;10195;50.868;4.382;2022-10-16T02:41:48;3.37;;;1.57;;
20069;SDS011;10195;50.868;4.382;2022-10-16T02:44:22;2.87;;;2.10;;
20069;SDS011;10195;50.868;4.382;2022-10-16T02:46:48;3.93;;;1.60;;
20069;SDS011;10195;50.868;4.382;2022-10-16T02:49:14;4.90;;;1.87;;
20069;SDS011;10195;50.868;4.382;2022-10-16T02:51:39;4.97;;;1.50;;
20069;SDS011;10195;50.868;4.382;2022-10-16T02:54:05;4.77;;;1.57;;
20069;SDS011;10195;50.868;4.382;2022-10-16T02:56:31;2.90;;;1.50;;
20069;SDS011;10195;50.868;4.382;2022-10-16T02:58:56;3.07;;;1.57;;
20069;SDS011;10195;50.868;4.382;2022-10-16T03:01:22;6.23;;;1.70;;
20069;SDS011;10195;50.868;4.382;2022-10-16T03:03:48;5.23;;;1.73;;
20069;SDS011;10195;50.868;4.382;2022-10-16T03:06:14;5.03;;;1.80;;
20069;SDS011;10195;50.868;4.382;2022-10-16T03:08:40;7.53;;;2.10;;
20069;SDS011;10195;50.868;4.382;2022-10-16T03:11:06;3.17;;;1.60;;
20069;SDS011;10195;50.868;4.382;2022-10-16T03:13:31;7.20;;;2.17;;
20069;SDS011;10195;50.868;4.382;2022-10-16T03:15:57;3.00;;;1.60;;
20069;SDS011;10195;50.868;4.382;2022-10-16T03:18:22;3.97;;;1.63;;
20069;SDS011;10195;50.868;4.382;2022-10-16T03:20:48;5.17;;;1.73;;
20069;SDS011;10195;50.868;4.382;2022-10-16T03:23:13;3.40;;;1.63;;
20069;SDS011;10195;50.868;4.382;2022-10-16T03:25:39;2.13;;;1.70;;
20069;SDS011;10195;50.868;4.382;2022-10-16T03:28:05;12.60;;;1.77;;
20069;SDS011;10195;50.868;4.382;2022-10-16T03:30:31;2.70;;;1.80;;
20069;SDS011;10195;50.868;4.382;2022-10-16T03:32:56;4.97;;;1.90;;
20069;SDS011;10195;50.868;4.382;2022-10-16T03:35:22;2.93;;;1.90;;
20069;SDS011;10195;50.868;4.382;2022-10-16T03:37:49;5.43;;;1.70;;
20069;SDS011;10195;50.868;4.382;2022-10-16T03:40:15;4.73;;;1.80;;
20069;SDS011;10195;50.868;4.382;2022-10-16T03:42:43;3.90;;;1.60;;
20069;SDS011;10195;50.868;4.382;2022-10-16T03:45:09;5.93;;;1.60;;
20069;SDS011;10195;50.868;4.382;2022-10-16T03:47:36;5.80;;;1.53;;
20069;SDS011;10195;50.868;4.382;2022-10-16T03:50:01;5.50;;;1.63;;
20069;SDS011;10195;50.868;4.382;2022-10-16T03:52:27;2.73;;;1.50;;
20069;SDS011;10195;50.868;4.382;2022-10-16T03:54:53;5.20;;;1.83;;
20069;SDS011;10195;50.868;4.382;2022-10-16T03:57:19;5.43;;;2.03;;
20069;SDS011;10195;50.868;4.382;2022-10-16T03:59:45;10.33;;;2.47;;
20069;SDS011;10195;50.868;4.382;2022-10-16T04:02:11;5.87;;;1.83;;
20069;SDS011;10195;50.868;4.382;2022-10-16T04:04:37;2.73;;;1.73;;
20069;SDS011;10195;50.868;4.382;2022-10-16T04:07:02;3.40;;;1.60;;
20069;SDS011;10195;50.868;4.382;2022-10-16T04:09:28;5.00;;;1.53;;
20069;SDS011;10195;50.868;4.382;2022-10-16T04:11:54;11.47;;;2.00;;
20069;SDS011;10195;50.868;4.382;2022-10-16T04:14:19;3.13;;;1.57;;
20069;SDS011;10195;50.868;4.382;2022-10-16T04:16:45;3.63;;;1.80;;
20069;SDS011;10195;50.868;4.382;2022-10-16T04:19:11;4.43;;;1.83;;
20069;SDS011;10195;50.868;4.382;2022-10-16T04:21:36;4.87;;;1.93;;
20069;SDS011;10195;50.868;4.382;2022-10-16T04:24:02;4.47;;;1.43;;
20069;SDS011;10195;50.868;4.382;2022-10-16T04:26:28;4.70;;;1.60;;
20069;SDS011;10195;50.868;4.382;2022-10-16T04:28:54;2.90;;;1.43;;
20069;SDS011;10195;50.868;4.382;2022-10-16T04:31:20;5.13;;;1.70;;
20069;SDS011;10195;50.868;4.382;2022-10-16T04:33:46;2.93;;;1.30;;
20069;SDS011;10195;50.868;4.382;2022-10-16T04:36:12;3.67;;;1.53;;
20069;SDS011;10195;50.868;4.382;2022-10-16T04:38:38;5.10;;;1.67;;
20069;SDS011;10195;50.868;4.382;2022-10-16T04:41:04;5.00;;;1.63;;
20069;SDS011;10195;50.868;4.382;2022-10-16T04:43:31;4.53;;;1.70;;
20069;SDS011;10195;50.868;4.382;2022-10-16T04:45:57;4.37;;;1.80;;
20069;SDS011;10195;50.868;4.382;2022-10-16T04:48:22;6.40;;;1.50;;
20069;SDS011;10195;50.868;4.382;2022-10-16T04:50:48;7.53;;;1.80;;
20069;SDS011;10195;50.868;4.382;2022-10-16T04:53:14;6.93;;;2.03;;
20069;SDS011;10195;50.868;4.382;2022-10-16T04:55:40;2.57;;;1.60;;
20069;SDS011;10195;50.868;4.382;2022-10-16T04:58:06;4.23;;;1.93;;
20069;SDS011;10195;50.868;4.382;2022-10-16T05:00:33;4.83;;;1.70;;
20069;SDS011;10195;50.868;4.382;2022-10-16T05:02:59;8.17;;;2.23;;
20069;SDS011;10195;50.868;4.382;2022-10-16T05:05:25;2.00;;;1.50;;
20069;SDS011;10195;50.868;4.382;2022-10-16T05:07:51;7.00;;;1.87;;
20069;SDS011;10195;50.868;4.382;2022-10-16T05:10:17;3.10;;;1.77;;
20069;SDS011;10195;50.868;4.382;2022-10-16T05:12:43;6.27;;;2.00;;
20069;SDS011;10195;50.868;4.382;2022-10-16T05:15:09;5.13;;;1.77;;
20069;SDS011;10195;50.868;4.382;2022-10-16T05:17:34;5.13;;;2.17;;
20069;SDS011;10195;50.868;4.382;2022-10-16T05:20:00;2.83;;;1.70;;
20069;SDS011;10195;50.868;4.382;2022-10-16T05:22:26;4.63;;;1.80;;
20069;SDS011;10195;50.868;4.382;2022-10-16T05:24:51;3.03;;;1.77;;
20069;SDS011;10195;50.868;4.382;2022-10-16T05:27:17;4.93;;;2.10;;
20069;SDS011;10195;50.868;4.382;2022-10-16T05:29:46;4.50;;;1.80;;
20069;SDS011;10195;50.868;4.382;2022-10-16T05:32:12;6.47;;;2.03;;
20069;SDS011;10195;50.868;4.382;2022-10-16T05:34:41;5.80;;;2.23;;
20069;SDS011;10195;50.868;4.382;2022-10-16T05:37:08;6.37;;;2.10;;
20069;SDS011;10195;50.868;4.382;2022-10-16T05:39:37;4.30;;;2.13;;
20069;SDS011;10195;50.868;4.382;2022-10-16T05:42:05;5.63;;;2.40;;
20069;SDS011;10195;50.868;4.382;2022-10-16T05:44:31;5.60;;;2.57;;
20069;SDS011;10195;50.868;4.382;2022-10-16T05:46:57;6.23;;;2.13;;
20069;SDS011;10195;50.868;4.382;2022-10-16T05:49:23;4.67;;;2.00;;
20069;SDS011;10195;50.868;4.382;2022-10-16T05:51:49;5.70;;;2.27;;
20069;SDS011;10195;50.868;4.382;2022-10-16T05:54:17;8.13;;;2.30;;
20069;SDS011;10195;50.868;4.382;2022-10-16T05:56:43;6.50;;;2.20;;
20069;SDS011;10195;50.868;4.382;2022-10-16T05:59:09;3.90;;;2.20;;
20069;SDS011;10195;50.868;4.382;2022-10-16T06:01:34;5.73;;;2.47;;
20069;SDS011;10195;50.868;4.382;2022-10-16T06:04:00;6.90;;;2.50;;
20069;SDS011;10195;50.868;4.382;2022-10-16T06:06:27;4.90;;;2.37;;
20069;SDS011;10195;50.868;4.382;2022-10-16T06:08:55;5.40;;;2.10;;
20069;SDS011;10195;50.868;4.382;2022-10-16T06:11:23;7.37;;;2.00;;
20069;SDS011;10195;50.868;4.382;2022-10-16T06:13:54;6.30;;;2.30;;
20069;SDS011;10195;50.868;4.382;2022-10-16T06:16:25;4.00;;;2.17;;
20069;SDS011;10195;50.868;4.382;2022-10-16T06:18:52;4.03;;;2.00;;
20069;SDS011;10195;50.868;4.382;2022-10-16T06:21:19;6.17;;;2.20;;
20069;SDS011;10195;50.868;4.382;2022-10-16T06:23:47;6.23;;;1.93;;
20069;SDS011;10195;50.868;4.382;2022-10-16T06:26:13;7.63;;;2.00;;
20069;SDS011;10195;50.868;4.382;2022-10-16T06:28:41;6.63;;;1.77;;
20069;SDS011;10195;50.868;4.382;2022-10-16T06:31:08;7.57;;;1.93;;
20069;SDS011;10195;50.868;4.382;2022-10-16T06:33:34;8.20;;;2.47;;
20069;SDS011;10195;50.868;4.382;2022-10-16T06:36:05;4.37;;;2.00;;
20069;SDS011;10195;50.868;4.382;2022-10-16T06:38:33;6.60;;;2.03;;
20069;SDS011;10195;50.868;4.382;2022-10-16T06:40:59;6.97;;;1.80;;
20069;SDS011;10195;50.868;4.382;2022-10-16T06:43:25;3.77;;;2.00;;
20069;SDS011;10195;50.868;4.382;2022-10-16T06:45:53;7.00;;;2.07;;
20069;SDS011;10195;50.868;4.382;2022-10-16T06:48:22;3.73;;;2.43;;
20069;SDS011;10195;50.868;4.382;2022-10-16T06:50:58;5.77;;;2.03;;
20069;SDS011;10195;50.868;4.382;2022-10-16T06:53:26;3.47;;;2.10;;
20069;SDS011;10195;50.868;4.382;2022-10-16T06:55:53;7.90;;;2.60;;
20069;SDS011;10195;50.868;4.382;2022-10-16T06:58:19;4.17;;;2.27;;
20069;SDS011;10195;50.868;4.382;2022-10-16T07:00:45;5.87;;;2.50;;
20069;SDS011;10195;50.868;4.382;2022-10-16T07:03:11;4.07;;;2.20;;
20069;SDS011;10195;50.868;4.382;2022-10-16T07:05:40;5.63;;;2.40;;
20069;SDS011;10195;50.868;4.382;2022-10-16T07:08:07;3.80;;;1.77;;
20069;SDS011;10195;50.868;4.382;2022-10-16T07:10:33;4.20;;;1.90;;
20069;SDS011;10195;50.868;4.382;2022-10-16T07:12:59;4.90;;;2.03;;
20069;SDS011;10195;50.868;4.382;2022-10-16T07:15:25;5.60;;;2.10;;
20069;SDS011;10195;50.868;4.382;2022-10-16T07:17:51;3.60;;;2.00;;
20069;SDS011;10195;50.868;4.382;2022-10-16T07:20:17;5.97;;;2.37;;
20069;SDS011;10195;50.868;4.382;2022-10-16T07:22:42;6.10;;;2.10;;
20069;SDS011;10195;50.868;4.382;2022-10-16T07:25:08;7.43;;;2.30;;
20069;SDS011;10195;50.868;4.382;2022-10-16T07:27:34;8.40;;;2.17;;
20069;SDS011;10195;50.868;4.382;2022-10-16T07:29:59;11.13;;;2.33;;
20069;SDS011;10195;50.868;4.382;2022-10-16T07:32:25;3.07;;;1.77;;
20069;SDS011;10195;50.868;4.382;2022-10-16T07:34:51;6.65;;;2.00;;
20069;SDS011;10195;50.868;4.382;2022-10-16T07:37:17;3.13;;;1.80;;
20069;SDS011;10195;50.868;4.382;2022-10-16T07:39:43;5.30;;;1.83;;
20069;SDS011;10195;50.868;4.382;2022-10-16T07:42:09;3.65;;;1.92;;
20069;SDS011;10195;50.868;4.382;2022-10-16T07:44:34;8.10;;;2.17;;
20069;SDS011;10195;50.868;4.382;2022-10-16T07:47:00;5.88;;;1.58;;
20069;SDS011;10195;50.868;4.382;2022-10-16T07:49:26;6.15;;;1.42;;
20069;SDS011;10195;50.868;4.382;2022-10-16T07:51:51;3.08;;;1.65;;
20069;SDS011;10195;50.868;4.382;2022-10-16T07:54:17;7.00;;;1.98;;
20069;SDS011;10195;50.868;4.382;2022-10-16T07:56:42;5.15;;;1.75;;
20069;SDS011;10195;50.868;4.382;2022-10-16T07:59:08;5.57;;;1.70;;
20069;SDS011;10195;50.868;4.382;2022-10-16T08:01:34;3.90;;;1.48;;
20069;SDS011;10195;50.868;4.382;2022-10-16T08:03:59;3.70;;;1.70;;
20069;SDS011;10195;50.868;4.382;2022-10-16T08:06:25;6.72;;;1.45;;
20069;SDS011;10195;50.868;4.382;2022-10-16T08:08:50;4.38;;;1.83;;
20069;SDS011;10195;50.868;4.382;2022-10-16T08:11:16;4.30;;;1.85;;
20069;SDS011;10195;50.868;4.382;2022-10-16T08:13:42;5.88;;;1.58;;
20069;SDS011;10195;50.868;4.382;2022-10-16T08:16:08;5.38;;;2.00;;
20069;SDS011;10195;50.868;4.382;2022-10-16T08:18:35;3.80;;;1.60;;
20069;SDS011;10195;50.868;4.382;2022-10-16T08:21:01;6.38;;;1.50;;
20069;SDS011;10195;50.868;4.382;2022-10-16T08:23:27;4.25;;;1.48;;
20069;SDS011;10195;50.868;4.382;2022-10-16T08:25:54;3.80;;;1.60;;
20069;SDS011;10195;50.868;4.382;2022-10-16T08:28:26;5.93;;;1.67;;
20069;SDS011;10195;50.868;4.382;2022-10-16T08:30:51;3.78;;;1.75;;
20069;SDS011;10195;50.868;4.382;2022-10-16T08:33:17;6.07;;;1.65;;
20069;SDS011;10195;50.868;4.382;2022-10-16T08:35:49;3.53;;;1.40;;
20069;SDS011;10195;50.868;4.382;2022-10-16T08:38:16;7.40;;;1.33;;
20069;SDS011;10195;50.868;4.382;2022-10-16T08:40:41;7.30;;;2.03;;
20069;SDS011;10195;50.868;4.382;2022-10-16T08:45:52;4.65;;;1.45;;
20069;SDS011;10195;50.868;4.382;2022-10-16T08:48:45;6.90;;;2.08;;
20069;SDS011;10195;50.868;4.382;2022-10-16T08:51:23;5.78;;;1.65;;
20069;SDS011;10195;50.868;4.382;2022-10-16T08:53:54;3.40;;;1.60;;
20069;SDS011;10195;50.868;4.382;2022-10-16T08:56:22;5.43;;;1.50;;
20069;SDS011;10195;50.868;4.382;2022-10-16T08:58:48;5.78;;;1.88;;
20069;SDS011;10195;50.868;4.382;2022-10-16T09:01:15;5.07;;;1.60;;
20069;SDS011;10195;50.868;4.382;2022-10-16T09:03:56;4.43;;;1.77;;
20069;SDS011;10195;50.868;4.382;2022-10-16T09:06:52;4.45;;;1.58;;
20069;SDS011;10195;50.868;4.382;2022-10-16T09:09:46;5.22;;;1.60;;
20069;SDS011;10195;50.868;4.382;2022-10-16T09:12:30;3.95;;;1.40;;
20069;SDS011;10195;50.868;4.382;2022-10-16T09:15:26;3.95;;;1.80;;
20069;SDS011;10195;50.868;4.382;2022-10-16T09:18:12;3.83;;;1.50;;
20069;SDS011;10195;50.868;4.382;2022-10-16T09:23:12;7.05;;;1.70;;
20069;SDS011;10195;50.868;4.382;2022-10-16T09:25:47;2.88;;;1.50;;
20069;SDS011;10195;50.868;4.382;2022-10-16T09:28:15;6.15;;;1.55;;
20069;SDS011;10195;50.868;4.382;2022-10-16T09:30:43;6.55;;;2.17;;
20069;SDS011;10195;50.868;4.382;2022-10-16T09:33:10;6.40;;;1.48;;
20069;SDS011;10195;50.868;4.382;2022-10-16T09:35:41;5.13;;;1.70;;
20069;SDS011;10195;50.868;4.382;2022-10-16T09:38:26;7.40;;;1.70;;
20069;SDS011;10195;50.868;4.382;2022-10-16T09:41:00;4.97;;;1.52;;
20069;SDS011;10195;50.868;4.382;2022-10-16T09:43:40;5.10;;;1.70;;
20069;SDS011;10195;50.868;4.382;2022-10-16T09:48:58;7.38;;;2.13;;
20069;SDS011;10195;50.868;4.382;2022-10-16T09:54:34;7.72;;;1.67;;
20069;SDS011;10195;50.868;4.382;2022-10-16T09:56:45;4.03;;;1.27;;
20069;SDS011;10195;50.868;4.382;2022-10-16T09:59:15;3.50;;;1.33;;
20069;SDS011;10195;50.868;4.382;2022-10-16T10:01:45;7.45;;;1.50;;
20069;SDS011;10195;50.868;4.382;2022-10-16T10:04:14;4.03;;;1.40;;
20069;SDS011;10195;50.868;4.382;2022-10-16T10:06:44;6.93;;;1.48;;
20069;SDS011;10195;50.868;4.382;2022-10-16T10:09:19;5.85;;;1.60;;
20069;SDS011;10195;50.868;4.382;2022-10-16T10:11:58;3.67;;;1.45;;
20069;SDS011;10195;50.868;4.382;2022-10-16T10:14:26;9.40;;;1.90;;
20069;SDS011;10195;50.868;4.382;2022-10-16T10:17:09;4.65;;;1.30;;
20069;SDS011;10195;50.868;4.382;2022-10-16T10:19:39;5.50;;;1.23;;
20069;SDS011;10195;50.868;4.382;2022-10-16T10:22:22;9.23;;;1.65;;
20069;SDS011;10195;50.868;4.382;2022-10-16T10:25:15;4.28;;;1.38;;
20069;SDS011;10195;50.868;4.382;2022-10-16T10:33:28;7.40;;;1.60;;
20069;SDS011;10195;50.868;4.382;2022-10-16T10:47:05;4.25;;;1.77;;
20069;SDS011;10195;50.868;4.382;2022-10-16T10:49:52;4.72;;;1.70;;
20069;SDS011;10195;50.868;4.382;2022-10-16T11:06:28;6.05;;;1.40;;
20069;SDS011;10195;50.868;4.382;2022-10-16T11:11:54;4.32;;;1.35;;
20069;SDS011;10195;50.868;4.382;2022-10-16T11:14:35;4.50;;;1.60;;
20069;SDS011;10195;50.868;4.382;2022-10-16T11:17:08;5.22;;;1.40;;
20069;SDS011;10195;50.868;4.382;2022-10-16T11:19:48;5.63;;;1.50;;
20069;SDS011;10195;50.868;4.382;2022-10-16T11:22:20;6.07;;;1.50;;
20069;SDS011;10195;50.868;4.382;2022-10-16T11:27:43;4.85;;;1.40;;
20069;SDS011;10195;50.868;4.382;2022-10-16T11:30:16;3.05;;;1.08;;
20069;SDS011;10195;50.868;4.382;2022-10-16T11:32:52;5.70;;;1.33;;
20069;SDS011;10195;50.868;4.382;2022-10-16T11:35:47;6.75;;;1.60;;
20069;SDS011;10195;50.868;4.382;2022-10-16T11:41:06;4.97;;;1.55;;
20069;SDS011;10195;50.868;4.382;2022-10-16T11:46:51;8.35;;;2.22;;
20069;SDS011;10195;50.868;4.382;2022-10-16T11:49:41;6.32;;;1.88;;
20069;SDS011;10195;50.868;4.382;2022-10-16T11:52:22;3.17;;;1.80;;
20069;SDS011;10195;50.868;4.382;2022-10-16T11:54:59;3.95;;;1.45;;
20069;SDS011;10195;50.868;4.382;2022-10-16T11:57:33;4.13;;;1.75;;
20069;SDS011;10195;50.868;4.382;2022-10-16T12:00:28;5.55;;;2.10;;
20069;SDS011;10195;50.868;4.382;2022-10-16T12:05:55;8.98;;;1.58;;
20069;SDS011;10195;50.868;4.382;2022-10-16T12:08:26;6.45;;;1.60;;
20069;SDS011;10195;50.868;4.382;2022-10-16T12:10:53;5.95;;;1.45;;
20069;SDS011;10195;50.868;4.382;2022-10-16T12:18:31;2.33;;;1.05;;
20069;SDS011;10195;50.868;4.382;2022-10-16T12:20:57;2.65;;;1.13;;
20069;SDS011;10195;50.868;4.382;2022-10-16T12:23:25;3.95;;;1.10;;
20069;SDS011;10195;50.868;4.382;2022-10-16T12:25:54;3.92;;;1.23;;
20069;SDS011;10195;50.868;4.382;2022-10-16T12:28:22;3.95;;;1.08;;
20069;SDS011;10195;50.868;4.382;2022-10-16T12:30:57;4.30;;;1.25;;
20069;SDS011;10195;50.868;4.382;2022-10-16T12:33:25;8.48;;;1.33;;
20069;SDS011;10195;50.868;4.382;2022-10-16T12:35:52;3.38;;;1.38;;
20069;SDS011;10195;50.868;4.382;2022-10-16T12:38:26;3.47;;;1.17;;
20069;SDS011;10195;50.868;4.382;2022-10-16T12:43:46;4.93;;;1.40;;
20069;SDS011;10195;50.868;4.382;2022-10-16T12:48:38;3.08;;;1.08;;
20069;SDS011;10195;50.868;4.382;2022-10-16T12:51:22;5.22;;;1.38;;
20069;SDS011;10195;50.868;4.382;2022-10-16T12:54:37;4.72;;;0.90;;
20069;SDS011;10195;50.868;4.382;2022-10-16T13:02:49;6.43;;;1.00;;
20069;SDS011;10195;50.868;4.382;2022-10-16T13:08:19;2.20;;;0.85;;
20069;SDS011;10195;50.868;4.382;2022-10-16T13:14:04;6.22;;;1.02;;
20069;SDS011;10195;50.868;4.382;2022-10-16T13:24:48;3.38;;;1.02;;
20069;SDS011;10195;50.868;4.382;2022-10-16T13:30:13;10.52;;;1.23;;
20069;SDS011;10195;50.868;4.382;2022-10-16T13:35:30;3.25;;;1.33;;
20069;SDS011;10195;50.868;4.382;2022-10-16T13:38:12;5.22;;;1.60;;
20069;SDS011;10195;50.868;4.382;2022-10-16T13:40:52;5.03;;;1.50;;
20069;SDS011;10195;50.868;4.382;2022-10-16T13:46:04;3.55;;;1.25;;
20069;SDS011;10195;50.868;4.382;2022-10-16T13:48:31;4.95;;;1.50;;
20069;SDS011;10195;50.868;4.382;2022-10-16T13:50:59;5.07;;;2.25;;
20069;SDS011;10195;50.868;4.382;2022-10-16T13:53:29;3.40;;;1.02;;
20069;SDS011;10195;50.868;4.382;2022-10-16T13:56:02;5.18;;;1.30;;
20069;SDS011;10195;50.868;4.382;2022-10-16T13:58:29;6.28;;;1.40;;
20069;SDS011;10195;50.868;4.382;2022-10-16T14:00:56;4.50;;;1.35;;
20069;SDS011;10195;50.868;4.382;2022-10-16T14:03:26;4.05;;;1.45;;
20069;SDS011;10195;50.868;4.382;2022-10-16T14:05:54;8.23;;;1.60;;
20069;SDS011;10195;50.868;4.382;2022-10-16T14:08:23;3.05;;;1.48;;
20069;SDS011;10195;50.868;4.382;2022-10-16T14:10:51;7.00;;;1.38;;
20069;SDS011;10195;50.868;4.382;2022-10-16T14:13:20;3.45;;;1.20;;
20069;SDS011;10195;50.868;4.382;2022-10-16T14:15:56;2.33;;;1.10;;
20069;SDS011;10195;50.868;4.382;2022-10-16T14:18:25;4.65;;;1.17;;
20069;SDS011;10195;50.868;4.382;2022-10-16T14:20:53;3.63;;;1.27;;
20069;SDS011;10195;50.868;4.382;2022-10-16T14:23:21;7.88;;;1.17;;
20069;SDS011;10195;50.868;4.382;2022-10-16T14:25:52;13.40;;;1.50;;
20069;SDS011;10195;50.868;4.382;2022-10-16T14:28:19;6.10;;;1.10;;
20069;SDS011;10195;50.868;4.382;2022-10-16T14:30:51;4.63;;;1.23;;
20069;SDS011;10195;50.868;4.382;2022-10-16T14:33:24;5.38;;;1.65;;
20069;SDS011;10195;50.868;4.382;2022-10-16T14:38:29;4.43;;;1.23;;
20069;SDS011;10195;50.868;4.382;2022-10-16T14:40:57;6.00;;;1.48;;
20069;SDS011;10195;50.868;4.382;2022-10-16T14:45:59;4.15;;;1.30;;
20069;SDS011;10195;50.868;4.382;2022-10-16T14:48:27;7.47;;;1.33;;
20069;SDS011;10195;50.868;4.382;2022-10-16T14:50:53;4.68;;;1.60;;
20069;SDS011;10195;50.868;4.382;2022-10-16T14:53:19;5.25;;;1.55;;
20069;SDS011;10195;50.868;4.382;2022-10-16T14:55:44;4.25;;;1.30;;
20069;SDS011;10195;50.868;4.382;2022-10-16T14:58:14;4.82;;;1.50;;
20069;SDS011;10195;50.868;4.382;2022-10-16T15:00:42;6.15;;;1.67;;
20069;SDS011;10195;50.868;4.382;2022-10-16T15:03:08;7.80;;;1.88;;
20069;SDS011;10195;50.868;4.382;2022-10-16T15:05:33;3.83;;;1.80;;
20069;SDS011;10195;50.868;4.382;2022-10-16T15:07:59;5.45;;;2.03;;
20069;SDS011;10195;50.868;4.382;2022-10-16T15:10:25;8.10;;;1.52;;
20069;SDS011;10195;50.868;4.382;2022-10-16T15:12:53;5.10;;;1.60;;
20069;SDS011;10195;50.868;4.382;2022-10-16T15:17:52;7.63;;;1.95;;
20069;SDS011;10195;50.868;4.382;2022-10-16T15:20:21;7.07;;;1.95;;
20069;SDS011;10195;50.868;4.382;2022-10-16T15:22:47;4.95;;;1.85;;
20069;SDS011;10195;50.868;4.382;2022-10-16T15:27:54;6.50;;;1.50;;
20069;SDS011;10195;50.868;4.382;2022-10-16T15:30:20;5.90;;;1.80;;
20069;SDS011;10195;50.868;4.382;2022-10-16T15:32:46;6.18;;;2.28;;
20069;SDS011;10195;50.868;4.382;2022-10-16T15:35:11;9.02;;;2.20;;
20069;SDS011;10195;50.868;4.382;2022-10-16T15:37:37;8.23;;;3.28;;
20069;SDS011;10195;50.868;4.382;2022-10-16T15:40:02;8.85;;;2.35;;
20069;SDS011;10195;50.868;4.382;2022-10-16T15:42:28;7.05;;;2.40;;
20069;SDS011;10195;50.868;4.382;2022-10-16T15:44:54;6.55;;;2.30;;
20069;SDS011;10195;50.868;4.382;2022-10-16T15:47:20;6.15;;;2.30;;
20069;SDS011;10195;50.868;4.382;2022-10-16T15:49:45;6.72;;;2.03;;
20069;SDS011;10195;50.868;4.382;2022-10-16T15:52:11;5.45;;;2.38;;
20069;SDS011;10195;50.868;4.382;2022-10-16T15:54:36;7.28;;;2.90;;
20069;SDS011;10195;50.868;4.382;2022-10-16T15:57:02;8.82;;;2.92;;
20069;SDS011;10195;50.868;4.382;2022-10-16T15:59:28;7.72;;;2.92;;
20069;SDS011;10195;50.868;4.382;2022-10-16T16:01:53;6.07;;;2.28;;
20069;SDS011;10195;50.868;4.382;2022-10-16T16:04:19;6.05;;;2.47;;
20069;SDS011;10195;50.868;4.382;2022-10-16T16:06:45;7.40;;;2.60;;
20069;SDS011;10195;50.868;4.382;2022-10-16T16:09:11;4.05;;;2.22;;
20069;SDS011;10195;50.868;4.382;2022-10-16T16:11:38;11.38;;;2.95;;
20069;SDS011;10195;50.868;4.382;2022-10-16T16:14:07;5.78;;;2.10;;
20069;SDS011;10195;50.868;4.382;2022-10-16T16:16:35;8.75;;;2.47;;
20069;SDS011;10195;50.868;4.382;2022-10-16T16:19:03;4.18;;;1.92;;
20069;SDS011;10195;50.868;4.382;2022-10-16T16:21:31;6.05;;;2.13;;
20069;SDS011;10195;50.868;4.382;2022-10-16T16:23:57;7.28;;;2.28;;
20069;SDS011;10195;50.868;4.382;2022-10-16T16:26:23;6.93;;;2.40;;
20069;SDS011;10195;50.868;4.382;2022-10-16T16:28:51;5.00;;;2.40;;
20069;SDS011;10195;50.868;4.382;2022-10-16T16:31:17;7.10;;;2.80;;
20069;SDS011;10195;50.868;4.382;2022-10-16T16:33:43;7.35;;;3.33;;
20069;SDS011;10195;50.868;4.382;2022-10-16T16:36:09;9.75;;;4.13;;
20069;SDS011;10195;50.868;4.382;2022-10-16T16:38:35;10.57;;;2.72;;
20069;SDS011;10195;50.868;4.382;2022-10-16T16:41:14;6.68;;;2.45;;
20069;SDS011;10195;50.868;4.382;2022-10-16T16:43:43;7.13;;;2.20;;
20069;SDS011;10195;50.868;4.382;2022-10-16T16:46:09;7.47;;;2.60;;
20069;SDS011;10195;50.868;4.382;2022-10-16T16:48:35;11.40;;;2.92;;
20069;SDS011;10195;50.868;4.382;2022-10-16T16:51:04;11.23;;;3.92;;
20069;SDS011;10195;50.868;4.382;2022-10-16T16:53:33;14.65;;;5.63;;
20069;SDS011;10195;50.868;4.382;2022-10-16T16:56:03;10.05;;;4.80;;
20069;SDS011;10195;50.868;4.382;2022-10-16T16:58:30;10.20;;;3.72;;
20069;SDS011;10195;50.868;4.382;2022-10-16T17:00:56;12.15;;;5.32;;